<?xml version="1.0" encoding="UTF-8" standalone="no" ?>
<gpx xmlns="http://www.topografix.com/GPX/1/1" xmlns:xsi="http://www.w3.org/2001/XMLSchema-instance" xsi:schemaLocation="http://www.topografix.com/GPX/1/1 http://www.topografix.com/GPX/1/1/gpx.xsd" version="1.1" creator="VisuGPX - https://www.visugpx.com">
  <metadata>
    <name>Agde la Tamarissière / Le tour des Verdisses / Château Laurens</name>
    <desc><![CDATA[Au départ de la plage de la Tamarissière, une originale randonnée entièrement au bord de l'eau : d'abord la mer, puis un canal de dérivation avant le canal du midi sur 4 kms, et pour finir le fleuve Hérault sur 4 kms également, avant de retrouver la plage de la Tamarissière, et en point d'orgue au milieu du circuit, le magnifique château Laurens]]></desc>
  </metadata>
  <wpt lat="43.28556" lon="3.44208">
    <ele>1</ele>
    <name><![CDATA[Point de passage 1]]></name>
    <type><![CDATA[GENERIC]]></type>
  </wpt>
  <wpt lat="43.28563" lon="3.44238">
    <ele>1</ele>
    <name><![CDATA[Point de passage 2]]></name>
    <type><![CDATA[GENERIC]]></type>
  </wpt>
  <trk>
    <name><![CDATA[Agde la Tamarissière / Le tour des Verdisses]]></name>
    <trkseg>
      <trkpt lat="43.28556" lon="3.44208">
        <ele>1</ele>
        <time>2026-07-09T05:51:23.000Z</time>
      </trkpt>
      <trkpt lat="43.28554" lon="3.44207">
        <ele>1</ele>
        <time>2026-07-09T05:51:25.000Z</time>
      </trkpt>
      <trkpt lat="43.2854" lon="3.44196">
        <ele>1</ele>
        <time>2026-07-09T05:53:40.000Z</time>
      </trkpt>
      <trkpt lat="43.28525" lon="3.44181">
        <ele>3</ele>
        <time>2026-07-09T05:54:13.000Z</time>
      </trkpt>
      <trkpt lat="43.2851" lon="3.44162">
        <ele>3</ele>
        <time>2026-07-09T05:54:45.000Z</time>
      </trkpt>
      <trkpt lat="43.28504" lon="3.44139">
        <ele>2</ele>
        <time>2026-07-09T05:54:58.000Z</time>
      </trkpt>
      <trkpt lat="43.28509" lon="3.44117">
        <ele>1</ele>
        <time>2026-07-09T05:55:19.000Z</time>
      </trkpt>
      <trkpt lat="43.28517" lon="3.44094">
        <ele>1</ele>
        <time>2026-07-09T05:55:36.000Z</time>
      </trkpt>
      <trkpt lat="43.28528" lon="3.44073">
        <ele>1</ele>
        <time>2026-07-09T05:55:54.000Z</time>
      </trkpt>
      <trkpt lat="43.28539" lon="3.44051">
        <ele>1</ele>
        <time>2026-07-09T05:56:13.000Z</time>
      </trkpt>
      <trkpt lat="43.28554" lon="3.44036">
        <ele>1</ele>
        <time>2026-07-09T05:56:31.000Z</time>
      </trkpt>
      <trkpt lat="43.28567" lon="3.44015">
        <ele>1</ele>
        <time>2026-07-09T05:56:47.000Z</time>
      </trkpt>
      <trkpt lat="43.28581" lon="3.43996">
        <ele>1</ele>
        <time>2026-07-09T05:57:02.000Z</time>
      </trkpt>
      <trkpt lat="43.28594" lon="3.43979">
        <ele>1.3</ele>
        <time>2026-07-09T05:57:19.000Z</time>
      </trkpt>
      <trkpt lat="43.28611" lon="3.43972">
        <ele>1</ele>
        <time>2026-07-09T05:57:37.000Z</time>
      </trkpt>
      <trkpt lat="43.28624" lon="3.43957">
        <ele>1</ele>
        <time>2026-07-09T05:57:56.000Z</time>
      </trkpt>
      <trkpt lat="43.28636" lon="3.43938">
        <ele>1</ele>
        <time>2026-07-09T05:58:13.000Z</time>
      </trkpt>
      <trkpt lat="43.28646" lon="3.43917">
        <ele>1</ele>
        <time>2026-07-09T05:58:27.000Z</time>
      </trkpt>
      <trkpt lat="43.28659" lon="3.43897">
        <ele>1</ele>
        <time>2026-07-09T05:58:43.000Z</time>
      </trkpt>
      <trkpt lat="43.28674" lon="3.43883">
        <ele>1</ele>
        <time>2026-07-09T05:58:59.000Z</time>
      </trkpt>
      <trkpt lat="43.28691" lon="3.43876">
        <ele>1</ele>
        <time>2026-07-09T05:59:18.000Z</time>
      </trkpt>
      <trkpt lat="43.28704" lon="3.43857">
        <ele>1</ele>
        <time>2026-07-09T05:59:34.000Z</time>
      </trkpt>
      <trkpt lat="43.28718" lon="3.43839">
        <ele>1</ele>
        <time>2026-07-09T05:59:51.000Z</time>
      </trkpt>
      <trkpt lat="43.28733" lon="3.43819">
        <ele>1</ele>
        <time>2026-07-09T06:00:07.000Z</time>
      </trkpt>
      <trkpt lat="43.28744" lon="3.43799">
        <ele>1</ele>
        <time>2026-07-09T06:00:23.000Z</time>
      </trkpt>
      <trkpt lat="43.28755" lon="3.4378">
        <ele>1</ele>
        <time>2026-07-09T06:00:39.000Z</time>
      </trkpt>
      <trkpt lat="43.28766" lon="3.4376">
        <ele>1</ele>
        <time>2026-07-09T06:00:55.000Z</time>
      </trkpt>
      <trkpt lat="43.28778" lon="3.43742">
        <ele>1</ele>
        <time>2026-07-09T06:01:11.000Z</time>
      </trkpt>
      <trkpt lat="43.28791" lon="3.43722">
        <ele>1</ele>
        <time>2026-07-09T06:01:27.000Z</time>
      </trkpt>
      <trkpt lat="43.28803" lon="3.43703">
        <ele>1</ele>
        <time>2026-07-09T06:01:43.000Z</time>
      </trkpt>
      <trkpt lat="43.28815" lon="3.43685">
        <ele>1</ele>
        <time>2026-07-09T06:01:59.000Z</time>
      </trkpt>
      <trkpt lat="43.28826" lon="3.43664">
        <ele>1</ele>
        <time>2026-07-09T06:02:15.000Z</time>
      </trkpt>
      <trkpt lat="43.28837" lon="3.43645">
        <ele>1</ele>
        <time>2026-07-09T06:02:30.000Z</time>
      </trkpt>
      <trkpt lat="43.28847" lon="3.43624">
        <ele>1</ele>
        <time>2026-07-09T06:02:46.000Z</time>
      </trkpt>
      <trkpt lat="43.28857" lon="3.43603">
        <ele>1</ele>
        <time>2026-07-09T06:03:01.000Z</time>
      </trkpt>
      <trkpt lat="43.28866" lon="3.43579">
        <ele>1</ele>
        <time>2026-07-09T06:03:17.000Z</time>
      </trkpt>
      <trkpt lat="43.28872" lon="3.43555">
        <ele>1</ele>
        <time>2026-07-09T06:03:34.000Z</time>
      </trkpt>
      <trkpt lat="43.28877" lon="3.43529">
        <time>2026-07-09T06:03:51.000Z</time>
      </trkpt>
      <trkpt lat="43.28883" lon="3.43505">
        <time>2026-07-09T06:04:07.000Z</time>
      </trkpt>
      <trkpt lat="43.28892" lon="3.43483">
        <ele>1</ele>
        <time>2026-07-09T06:04:31.000Z</time>
      </trkpt>
      <trkpt lat="43.28899" lon="3.43459">
        <ele>1</ele>
        <time>2026-07-09T06:04:50.000Z</time>
      </trkpt>
      <trkpt lat="43.28903" lon="3.43434">
        <ele>1</ele>
        <time>2026-07-09T06:05:09.000Z</time>
      </trkpt>
      <trkpt lat="43.28909" lon="3.4341">
        <ele>1</ele>
        <time>2026-07-09T06:05:25.000Z</time>
      </trkpt>
      <trkpt lat="43.28917" lon="3.43388">
        <time>2026-07-09T06:05:41.000Z</time>
      </trkpt>
      <trkpt lat="43.28924" lon="3.43364">
        <ele>1</ele>
        <time>2026-07-09T06:06:01.000Z</time>
      </trkpt>
      <trkpt lat="43.28934" lon="3.4334">
        <ele>1</ele>
        <time>2026-07-09T06:06:19.000Z</time>
      </trkpt>
      <trkpt lat="43.28939" lon="3.43316">
        <time>2026-07-09T06:06:34.000Z</time>
      </trkpt>
      <trkpt lat="43.28947" lon="3.43293">
        <ele>1</ele>
        <time>2026-07-09T06:06:49.000Z</time>
      </trkpt>
      <trkpt lat="43.28952" lon="3.43269">
        <ele>1</ele>
        <time>2026-07-09T06:07:06.000Z</time>
      </trkpt>
      <trkpt lat="43.28955" lon="3.43243">
        <time>2026-07-09T06:07:23.000Z</time>
      </trkpt>
      <trkpt lat="43.28958" lon="3.43219">
        <time>2026-07-09T06:07:39.000Z</time>
      </trkpt>
      <trkpt lat="43.28962" lon="3.43193">
        <time>2026-07-09T06:07:56.000Z</time>
      </trkpt>
      <trkpt lat="43.28966" lon="3.43168">
        <time>2026-07-09T06:08:12.000Z</time>
      </trkpt>
      <trkpt lat="43.28971" lon="3.43145">
        <time>2026-07-09T06:08:29.000Z</time>
      </trkpt>
      <trkpt lat="43.28974" lon="3.4312">
        <ele>1</ele>
        <time>2026-07-09T06:08:47.000Z</time>
      </trkpt>
      <trkpt lat="43.28975" lon="3.43092">
        <ele>1</ele>
        <time>2026-07-09T06:09:02.000Z</time>
      </trkpt>
      <trkpt lat="43.28979" lon="3.43066">
        <ele>1</ele>
        <time>2026-07-09T06:09:19.000Z</time>
      </trkpt>
      <trkpt lat="43.28981" lon="3.4304">
        <ele>1</ele>
        <time>2026-07-09T06:09:36.000Z</time>
      </trkpt>
      <trkpt lat="43.28982" lon="3.43015">
        <ele>1</ele>
        <time>2026-07-09T06:09:53.000Z</time>
      </trkpt>
      <trkpt lat="43.28982" lon="3.4299">
        <ele>1</ele>
        <time>2026-07-09T06:10:08.000Z</time>
      </trkpt>
      <trkpt lat="43.28982" lon="3.42963">
        <ele>1</ele>
        <time>2026-07-09T06:10:27.000Z</time>
      </trkpt>
      <trkpt lat="43.28987" lon="3.42941">
        <ele>1.1</ele>
        <time>2026-07-09T06:10:44.000Z</time>
      </trkpt>
      <trkpt lat="43.29003" lon="3.42932">
        <ele>1</ele>
        <time>2026-07-09T06:11:08.000Z</time>
      </trkpt>
      <trkpt lat="43.29021" lon="3.42926">
        <ele>2</ele>
        <time>2026-07-09T06:12:07.000Z</time>
      </trkpt>
      <trkpt lat="43.29039" lon="3.4293">
        <ele>2</ele>
        <time>2026-07-09T06:12:48.000Z</time>
      </trkpt>
      <trkpt lat="43.29057" lon="3.42935">
        <ele>2</ele>
        <time>2026-07-09T06:13:06.000Z</time>
      </trkpt>
      <trkpt lat="43.29074" lon="3.42946">
        <ele>1</ele>
        <time>2026-07-09T06:13:24.000Z</time>
      </trkpt>
      <trkpt lat="43.29092" lon="3.42955">
        <ele>1</ele>
        <time>2026-07-09T06:13:45.000Z</time>
      </trkpt>
      <trkpt lat="43.29109" lon="3.4296">
        <ele>1</ele>
        <time>2026-07-09T06:14:01.000Z</time>
      </trkpt>
      <trkpt lat="43.29127" lon="3.42958">
        <ele>1</ele>
        <time>2026-07-09T06:14:20.000Z</time>
      </trkpt>
      <trkpt lat="43.29145" lon="3.42958">
        <ele>1</ele>
        <time>2026-07-09T06:14:39.000Z</time>
      </trkpt>
      <trkpt lat="43.29163" lon="3.42963">
        <ele>1</ele>
        <time>2026-07-09T06:14:56.000Z</time>
      </trkpt>
      <trkpt lat="43.29182" lon="3.42969">
        <ele>1</ele>
        <time>2026-07-09T06:15:12.000Z</time>
      </trkpt>
      <trkpt lat="43.292" lon="3.42971">
        <ele>1</ele>
        <time>2026-07-09T06:15:29.000Z</time>
      </trkpt>
      <trkpt lat="43.29219" lon="3.42972">
        <ele>1</ele>
        <time>2026-07-09T06:15:46.000Z</time>
      </trkpt>
      <trkpt lat="43.29238" lon="3.42977">
        <ele>1</ele>
        <time>2026-07-09T06:16:03.000Z</time>
      </trkpt>
      <trkpt lat="43.29256" lon="3.42982">
        <ele>1</ele>
        <time>2026-07-09T06:16:22.000Z</time>
      </trkpt>
      <trkpt lat="43.29274" lon="3.42988">
        <ele>1</ele>
        <time>2026-07-09T06:16:39.000Z</time>
      </trkpt>
      <trkpt lat="43.29289" lon="3.43">
        <ele>1</ele>
        <time>2026-07-09T06:16:54.000Z</time>
      </trkpt>
      <trkpt lat="43.29302" lon="3.43018">
        <ele>1</ele>
        <time>2026-07-09T06:17:10.000Z</time>
      </trkpt>
      <trkpt lat="43.29314" lon="3.43037">
        <ele>1</ele>
        <time>2026-07-09T06:17:26.000Z</time>
      </trkpt>
      <trkpt lat="43.29327" lon="3.43056">
        <ele>1</ele>
        <time>2026-07-09T06:17:45.000Z</time>
      </trkpt>
      <trkpt lat="43.29344" lon="3.43062">
        <ele>1</ele>
        <time>2026-07-09T06:18:01.000Z</time>
      </trkpt>
      <trkpt lat="43.2936" lon="3.43053">
        <ele>1</ele>
        <time>2026-07-09T06:18:19.000Z</time>
      </trkpt>
      <trkpt lat="43.29375" lon="3.4304">
        <ele>1</ele>
        <time>2026-07-09T06:20:44.000Z</time>
      </trkpt>
      <trkpt lat="43.29392" lon="3.43034">
        <ele>1</ele>
        <time>2026-07-09T06:20:57.000Z</time>
      </trkpt>
      <trkpt lat="43.29406" lon="3.43019">
        <ele>1</ele>
        <time>2026-07-09T06:21:15.000Z</time>
      </trkpt>
      <trkpt lat="43.29421" lon="3.43005">
        <ele>2</ele>
        <time>2026-07-09T06:21:27.000Z</time>
      </trkpt>
      <trkpt lat="43.29439" lon="3.42998">
        <ele>2</ele>
        <time>2026-07-09T06:21:48.000Z</time>
      </trkpt>
      <trkpt lat="43.29457" lon="3.42995">
        <ele>2</ele>
        <time>2026-07-09T06:22:06.000Z</time>
      </trkpt>
      <trkpt lat="43.29469" lon="3.42983">
        <ele>2</ele>
        <time>2026-07-09T06:22:26.000Z</time>
      </trkpt>
      <trkpt lat="43.29481" lon="3.42998">
        <ele>2</ele>
        <time>2026-07-09T06:23:38.000Z</time>
      </trkpt>
      <trkpt lat="43.29498" lon="3.43008">
        <ele>1</ele>
        <time>2026-07-09T06:23:55.000Z</time>
      </trkpt>
      <trkpt lat="43.29518" lon="3.43015">
        <ele>2</ele>
        <time>2026-07-09T06:24:13.000Z</time>
      </trkpt>
      <trkpt lat="43.29537" lon="3.43018">
        <ele>2</ele>
        <time>2026-07-09T06:24:28.000Z</time>
      </trkpt>
      <trkpt lat="43.29557" lon="3.43018">
        <ele>2</ele>
        <time>2026-07-09T06:24:45.000Z</time>
      </trkpt>
      <trkpt lat="43.29576" lon="3.4302">
        <ele>2</ele>
        <time>2026-07-09T06:24:59.000Z</time>
      </trkpt>
      <trkpt lat="43.29595" lon="3.43023">
        <ele>1</ele>
        <time>2026-07-09T06:25:14.000Z</time>
      </trkpt>
      <trkpt lat="43.29613" lon="3.43024">
        <ele>2</ele>
        <time>2026-07-09T06:25:29.000Z</time>
      </trkpt>
      <trkpt lat="43.29632" lon="3.43027">
        <ele>2</ele>
        <time>2026-07-09T06:25:45.000Z</time>
      </trkpt>
      <trkpt lat="43.29651" lon="3.43032">
        <ele>2</ele>
        <time>2026-07-09T06:26:01.000Z</time>
      </trkpt>
      <trkpt lat="43.29669" lon="3.43036">
        <ele>1</ele>
        <time>2026-07-09T06:26:15.000Z</time>
      </trkpt>
      <trkpt lat="43.29687" lon="3.43039">
        <ele>2</ele>
        <time>2026-07-09T06:26:30.000Z</time>
      </trkpt>
      <trkpt lat="43.29705" lon="3.43043">
        <ele>2</ele>
        <time>2026-07-09T06:26:45.000Z</time>
      </trkpt>
      <trkpt lat="43.29723" lon="3.43047">
        <ele>2</ele>
        <time>2026-07-09T06:27:00.000Z</time>
      </trkpt>
      <trkpt lat="43.29742" lon="3.43049">
        <ele>2</ele>
        <time>2026-07-09T06:27:15.000Z</time>
      </trkpt>
      <trkpt lat="43.29763" lon="3.43053">
        <ele>2</ele>
        <time>2026-07-09T06:27:31.000Z</time>
      </trkpt>
      <trkpt lat="43.29781" lon="3.43055">
        <ele>2</ele>
        <time>2026-07-09T06:27:46.000Z</time>
      </trkpt>
      <trkpt lat="43.29801" lon="3.43058">
        <ele>2</ele>
        <time>2026-07-09T06:28:02.000Z</time>
      </trkpt>
      <trkpt lat="43.29819" lon="3.43064">
        <ele>2</ele>
        <time>2026-07-09T06:28:18.000Z</time>
      </trkpt>
      <trkpt lat="43.29838" lon="3.43066">
        <ele>2</ele>
        <time>2026-07-09T06:28:33.000Z</time>
      </trkpt>
      <trkpt lat="43.29858" lon="3.43064">
        <ele>2</ele>
        <time>2026-07-09T06:28:48.000Z</time>
      </trkpt>
      <trkpt lat="43.29877" lon="3.43064">
        <ele>2</ele>
        <time>2026-07-09T06:29:03.000Z</time>
      </trkpt>
      <trkpt lat="43.29896" lon="3.43063">
        <ele>2</ele>
        <time>2026-07-09T06:29:18.000Z</time>
      </trkpt>
      <trkpt lat="43.29914" lon="3.43059">
        <ele>2</ele>
        <time>2026-07-09T06:29:32.000Z</time>
      </trkpt>
      <trkpt lat="43.29933" lon="3.43054">
        <ele>2</ele>
        <time>2026-07-09T06:29:47.000Z</time>
      </trkpt>
      <trkpt lat="43.29952" lon="3.43048">
        <ele>2</ele>
        <time>2026-07-09T06:30:02.000Z</time>
      </trkpt>
      <trkpt lat="43.29971" lon="3.43047">
        <ele>2</ele>
        <time>2026-07-09T06:30:17.000Z</time>
      </trkpt>
      <trkpt lat="43.29991" lon="3.43044">
        <ele>2</ele>
        <time>2026-07-09T06:30:32.000Z</time>
      </trkpt>
      <trkpt lat="43.3001" lon="3.43041">
        <ele>2</ele>
        <time>2026-07-09T06:30:47.000Z</time>
      </trkpt>
      <trkpt lat="43.30029" lon="3.4304">
        <ele>2</ele>
        <time>2026-07-09T06:31:01.000Z</time>
      </trkpt>
      <trkpt lat="43.30048" lon="3.43037">
        <ele>1</ele>
        <time>2026-07-09T06:31:16.000Z</time>
      </trkpt>
      <trkpt lat="43.30066" lon="3.43035">
        <ele>2</ele>
        <time>2026-07-09T06:31:32.000Z</time>
      </trkpt>
      <trkpt lat="43.30084" lon="3.43032">
        <ele>1</ele>
        <time>2026-07-09T06:31:48.000Z</time>
      </trkpt>
      <trkpt lat="43.30102" lon="3.43031">
        <ele>1</ele>
        <time>2026-07-09T06:32:03.000Z</time>
      </trkpt>
      <trkpt lat="43.30121" lon="3.43029">
        <ele>2</ele>
        <time>2026-07-09T06:32:18.000Z</time>
      </trkpt>
      <trkpt lat="43.3014" lon="3.43026">
        <ele>1</ele>
        <time>2026-07-09T06:32:33.000Z</time>
      </trkpt>
      <trkpt lat="43.30158" lon="3.43021">
        <ele>2</ele>
        <time>2026-07-09T06:32:47.000Z</time>
      </trkpt>
      <trkpt lat="43.30177" lon="3.43021">
        <ele>1</ele>
        <time>2026-07-09T06:33:03.000Z</time>
      </trkpt>
      <trkpt lat="43.30195" lon="3.43021">
        <ele>1</ele>
        <time>2026-07-09T06:33:17.000Z</time>
      </trkpt>
      <trkpt lat="43.30213" lon="3.43021">
        <ele>1</ele>
        <time>2026-07-09T06:33:31.000Z</time>
      </trkpt>
      <trkpt lat="43.30231" lon="3.43016">
        <ele>1</ele>
        <time>2026-07-09T06:33:45.000Z</time>
      </trkpt>
      <trkpt lat="43.30249" lon="3.43014">
        <ele>1</ele>
        <time>2026-07-09T06:34:00.000Z</time>
      </trkpt>
      <trkpt lat="43.30266" lon="3.43015">
        <ele>2</ele>
        <time>2026-07-09T06:34:16.000Z</time>
      </trkpt>
      <trkpt lat="43.30275" lon="3.43035">
        <ele>2</ele>
        <time>2026-07-09T06:34:41.000Z</time>
      </trkpt>
      <trkpt lat="43.30287" lon="3.43055">
        <ele>2</ele>
        <time>2026-07-09T06:34:58.000Z</time>
      </trkpt>
      <trkpt lat="43.3029" lon="3.43079">
        <ele>3</ele>
        <time>2026-07-09T06:35:15.000Z</time>
      </trkpt>
      <trkpt lat="43.30296" lon="3.43102">
        <ele>2</ele>
        <time>2026-07-09T06:35:31.000Z</time>
      </trkpt>
      <trkpt lat="43.30297" lon="3.43126">
        <ele>2</ele>
        <time>2026-07-09T06:35:45.000Z</time>
      </trkpt>
      <trkpt lat="43.30298" lon="3.43152">
        <ele>3</ele>
        <time>2026-07-09T06:36:01.000Z</time>
      </trkpt>
      <trkpt lat="43.30301" lon="3.43178">
        <ele>2</ele>
        <time>2026-07-09T06:36:17.000Z</time>
      </trkpt>
      <trkpt lat="43.30302" lon="3.43203">
        <ele>3</ele>
        <time>2026-07-09T06:36:32.000Z</time>
      </trkpt>
      <trkpt lat="43.30304" lon="3.4323">
        <ele>3</ele>
        <time>2026-07-09T06:36:48.000Z</time>
      </trkpt>
      <trkpt lat="43.30305" lon="3.43256">
        <ele>2</ele>
        <time>2026-07-09T06:37:03.000Z</time>
      </trkpt>
      <trkpt lat="43.30307" lon="3.43282">
        <ele>1</ele>
        <time>2026-07-09T06:37:18.000Z</time>
      </trkpt>
      <trkpt lat="43.30309" lon="3.43309">
        <ele>2</ele>
        <time>2026-07-09T06:37:33.000Z</time>
      </trkpt>
      <trkpt lat="43.30313" lon="3.43335">
        <ele>2</ele>
        <time>2026-07-09T06:37:49.000Z</time>
      </trkpt>
      <trkpt lat="43.30318" lon="3.4336">
        <ele>2</ele>
        <time>2026-07-09T06:38:03.000Z</time>
      </trkpt>
      <trkpt lat="43.30323" lon="3.43384">
        <ele>2</ele>
        <time>2026-07-09T06:38:19.000Z</time>
      </trkpt>
      <trkpt lat="43.30329" lon="3.43407">
        <ele>2</ele>
        <time>2026-07-09T06:38:34.000Z</time>
      </trkpt>
      <trkpt lat="43.30335" lon="3.4343">
        <ele>1</ele>
        <time>2026-07-09T06:38:50.000Z</time>
      </trkpt>
      <trkpt lat="43.30337" lon="3.43455">
        <ele>1</ele>
        <time>2026-07-09T06:39:10.000Z</time>
      </trkpt>
      <trkpt lat="43.30348" lon="3.43474">
        <ele>3</ele>
        <time>2026-07-09T06:39:24.000Z</time>
      </trkpt>
      <trkpt lat="43.30362" lon="3.4349">
        <ele>2</ele>
        <time>2026-07-09T06:39:38.000Z</time>
      </trkpt>
      <trkpt lat="43.30376" lon="3.43509">
        <ele>2</ele>
        <time>2026-07-09T06:39:54.000Z</time>
      </trkpt>
      <trkpt lat="43.3039" lon="3.43528">
        <ele>1</ele>
        <time>2026-07-09T06:40:09.000Z</time>
      </trkpt>
      <trkpt lat="43.30403" lon="3.43544">
        <ele>1</ele>
        <time>2026-07-09T06:40:22.000Z</time>
      </trkpt>
      <trkpt lat="43.30418" lon="3.43561">
        <ele>2</ele>
        <time>2026-07-09T06:40:37.000Z</time>
      </trkpt>
      <trkpt lat="43.3043" lon="3.4358">
        <ele>2</ele>
        <time>2026-07-09T06:40:52.000Z</time>
      </trkpt>
      <trkpt lat="43.30442" lon="3.436">
        <ele>2</ele>
        <time>2026-07-09T06:41:08.000Z</time>
      </trkpt>
      <trkpt lat="43.30453" lon="3.4362">
        <ele>1</ele>
        <time>2026-07-09T06:41:24.000Z</time>
      </trkpt>
      <trkpt lat="43.30467" lon="3.43636">
        <ele>2</ele>
        <time>2026-07-09T06:41:44.000Z</time>
      </trkpt>
      <trkpt lat="43.30485" lon="3.43646">
        <ele>2</ele>
        <time>2026-07-09T06:42:06.000Z</time>
      </trkpt>
      <trkpt lat="43.30501" lon="3.43658">
        <ele>2</ele>
        <time>2026-07-09T06:42:24.000Z</time>
      </trkpt>
      <trkpt lat="43.30518" lon="3.43672">
        <ele>2</ele>
        <time>2026-07-09T06:42:42.000Z</time>
      </trkpt>
      <trkpt lat="43.30534" lon="3.43685">
        <ele>2</ele>
        <time>2026-07-09T06:42:57.000Z</time>
      </trkpt>
      <trkpt lat="43.30551" lon="3.43698">
        <ele>2</ele>
        <time>2026-07-09T06:43:12.000Z</time>
      </trkpt>
      <trkpt lat="43.3057" lon="3.43707">
        <ele>3</ele>
        <time>2026-07-09T06:43:29.000Z</time>
      </trkpt>
      <trkpt lat="43.30588" lon="3.43714">
        <ele>2</ele>
        <time>2026-07-09T06:43:45.000Z</time>
      </trkpt>
      <trkpt lat="43.30605" lon="3.43722">
        <ele>2</ele>
        <time>2026-07-09T06:43:59.000Z</time>
      </trkpt>
      <trkpt lat="43.30622" lon="3.4373">
        <ele>2</ele>
        <time>2026-07-09T06:44:14.000Z</time>
      </trkpt>
      <trkpt lat="43.30641" lon="3.43738">
        <ele>3</ele>
        <time>2026-07-09T06:44:31.000Z</time>
      </trkpt>
      <trkpt lat="43.30659" lon="3.43745">
        <ele>3</ele>
        <time>2026-07-09T06:44:46.000Z</time>
      </trkpt>
      <trkpt lat="43.30677" lon="3.43753">
        <ele>3</ele>
        <time>2026-07-09T06:45:02.000Z</time>
      </trkpt>
      <trkpt lat="43.30695" lon="3.4376">
        <ele>3</ele>
        <time>2026-07-09T06:45:18.000Z</time>
      </trkpt>
      <trkpt lat="43.30713" lon="3.43769">
        <ele>3</ele>
        <time>2026-07-09T06:45:33.000Z</time>
      </trkpt>
      <trkpt lat="43.30731" lon="3.43773">
        <ele>2</ele>
        <time>2026-07-09T06:45:46.000Z</time>
      </trkpt>
      <trkpt lat="43.3075" lon="3.43776">
        <ele>2</ele>
        <time>2026-07-09T06:46:01.000Z</time>
      </trkpt>
      <trkpt lat="43.30766" lon="3.43787">
        <ele>2</ele>
        <time>2026-07-09T06:46:16.000Z</time>
      </trkpt>
      <trkpt lat="43.30782" lon="3.43799">
        <ele>2</ele>
        <time>2026-07-09T06:46:31.000Z</time>
      </trkpt>
      <trkpt lat="43.30799" lon="3.43809">
        <ele>2</ele>
        <time>2026-07-09T06:46:47.000Z</time>
      </trkpt>
      <trkpt lat="43.30817" lon="3.43817">
        <ele>2</ele>
        <time>2026-07-09T06:47:03.000Z</time>
      </trkpt>
      <trkpt lat="43.30835" lon="3.43824">
        <ele>2</ele>
        <time>2026-07-09T06:47:18.000Z</time>
      </trkpt>
      <trkpt lat="43.30852" lon="3.43833">
        <ele>2</ele>
        <time>2026-07-09T06:47:34.000Z</time>
      </trkpt>
      <trkpt lat="43.3087" lon="3.43842">
        <ele>2</ele>
        <time>2026-07-09T06:47:49.000Z</time>
      </trkpt>
      <trkpt lat="43.30889" lon="3.4385">
        <ele>2</ele>
        <time>2026-07-09T06:48:05.000Z</time>
      </trkpt>
      <trkpt lat="43.30908" lon="3.43858">
        <ele>2</ele>
        <time>2026-07-09T06:48:20.000Z</time>
      </trkpt>
      <trkpt lat="43.30926" lon="3.43866">
        <ele>2</ele>
        <time>2026-07-09T06:48:35.000Z</time>
      </trkpt>
      <trkpt lat="43.30945" lon="3.43871">
        <ele>1</ele>
        <time>2026-07-09T06:48:50.000Z</time>
      </trkpt>
      <trkpt lat="43.30964" lon="3.43878">
        <ele>1</ele>
        <time>2026-07-09T06:49:08.000Z</time>
      </trkpt>
      <trkpt lat="43.30982" lon="3.43887">
        <ele>2</ele>
        <time>2026-07-09T06:49:25.000Z</time>
      </trkpt>
      <trkpt lat="43.31" lon="3.43898">
        <ele>2</ele>
        <time>2026-07-09T06:49:41.000Z</time>
      </trkpt>
      <trkpt lat="43.31018" lon="3.43908">
        <ele>2</ele>
        <time>2026-07-09T06:49:57.000Z</time>
      </trkpt>
      <trkpt lat="43.31035" lon="3.43917">
        <ele>2</ele>
        <time>2026-07-09T06:50:11.000Z</time>
      </trkpt>
      <trkpt lat="43.31053" lon="3.43925">
        <ele>2</ele>
        <time>2026-07-09T06:50:27.000Z</time>
      </trkpt>
      <trkpt lat="43.31071" lon="3.43932">
        <ele>2</ele>
        <time>2026-07-09T06:50:42.000Z</time>
      </trkpt>
      <trkpt lat="43.31089" lon="3.4394">
        <ele>2</ele>
        <time>2026-07-09T06:50:58.000Z</time>
      </trkpt>
      <trkpt lat="43.31107" lon="3.43948">
        <ele>2</ele>
        <time>2026-07-09T06:51:12.000Z</time>
      </trkpt>
      <trkpt lat="43.31123" lon="3.43958">
        <ele>2</ele>
        <time>2026-07-09T06:51:27.000Z</time>
      </trkpt>
      <trkpt lat="43.3114" lon="3.43969">
        <ele>2</ele>
        <time>2026-07-09T06:51:42.000Z</time>
      </trkpt>
      <trkpt lat="43.31157" lon="3.43978">
        <ele>2</ele>
        <time>2026-07-09T06:51:57.000Z</time>
      </trkpt>
      <trkpt lat="43.31174" lon="3.43987">
        <ele>2</ele>
        <time>2026-07-09T06:52:12.000Z</time>
      </trkpt>
      <trkpt lat="43.31192" lon="3.43997">
        <ele>2</ele>
        <time>2026-07-09T06:52:28.000Z</time>
      </trkpt>
      <trkpt lat="43.31209" lon="3.44007">
        <ele>2</ele>
        <time>2026-07-09T06:52:44.000Z</time>
      </trkpt>
      <trkpt lat="43.31227" lon="3.44012">
        <ele>2</ele>
        <time>2026-07-09T06:53:00.000Z</time>
      </trkpt>
      <trkpt lat="43.31241" lon="3.44026">
        <ele>2</ele>
        <time>2026-07-09T06:53:16.000Z</time>
      </trkpt>
      <trkpt lat="43.31258" lon="3.44036">
        <ele>2</ele>
        <time>2026-07-09T06:53:31.000Z</time>
      </trkpt>
      <trkpt lat="43.31276" lon="3.44046">
        <ele>2</ele>
        <time>2026-07-09T06:53:47.000Z</time>
      </trkpt>
      <trkpt lat="43.31295" lon="3.44056">
        <ele>2</ele>
        <time>2026-07-09T06:54:04.000Z</time>
      </trkpt>
      <trkpt lat="43.31313" lon="3.44063">
        <ele>2</ele>
        <time>2026-07-09T06:54:20.000Z</time>
      </trkpt>
      <trkpt lat="43.31331" lon="3.44068">
        <ele>1</ele>
        <time>2026-07-09T06:54:36.000Z</time>
      </trkpt>
      <trkpt lat="43.31351" lon="3.44071">
        <ele>1</ele>
        <time>2026-07-09T06:54:53.000Z</time>
      </trkpt>
      <trkpt lat="43.3137" lon="3.44073">
        <ele>1</ele>
        <time>2026-07-09T06:55:09.000Z</time>
      </trkpt>
      <trkpt lat="43.31388" lon="3.4407">
        <ele>2</ele>
        <time>2026-07-09T06:55:24.000Z</time>
      </trkpt>
      <trkpt lat="43.31407" lon="3.44069">
        <ele>2</ele>
        <time>2026-07-09T06:55:42.000Z</time>
      </trkpt>
      <trkpt lat="43.31425" lon="3.44071">
        <ele>4</ele>
        <time>2026-07-09T06:55:57.000Z</time>
      </trkpt>
      <trkpt lat="43.31444" lon="3.44072">
        <ele>3</ele>
        <time>2026-07-09T06:56:13.000Z</time>
      </trkpt>
      <trkpt lat="43.31462" lon="3.44071">
        <ele>2</ele>
        <time>2026-07-09T06:56:30.000Z</time>
      </trkpt>
      <trkpt lat="43.31481" lon="3.44067">
        <ele>4</ele>
        <time>2026-07-09T06:56:49.000Z</time>
      </trkpt>
      <trkpt lat="43.31498" lon="3.4407">
        <ele>2</ele>
        <time>2026-07-09T06:57:09.000Z</time>
      </trkpt>
      <trkpt lat="43.31511" lon="3.44088">
        <ele>2</ele>
        <time>2026-07-09T06:57:28.000Z</time>
      </trkpt>
      <trkpt lat="43.31528" lon="3.44101">
        <ele>2</ele>
        <time>2026-07-09T06:57:44.000Z</time>
      </trkpt>
      <trkpt lat="43.31543" lon="3.44117">
        <ele>2</ele>
        <time>2026-07-09T06:58:00.000Z</time>
      </trkpt>
      <trkpt lat="43.31555" lon="3.44136">
        <ele>2</ele>
        <time>2026-07-09T06:58:14.000Z</time>
      </trkpt>
      <trkpt lat="43.31566" lon="3.44156">
        <ele>2</ele>
        <time>2026-07-09T06:58:29.000Z</time>
      </trkpt>
      <trkpt lat="43.31573" lon="3.4418">
        <ele>2</ele>
        <time>2026-07-09T06:58:45.000Z</time>
      </trkpt>
      <trkpt lat="43.31577" lon="3.44207">
        <ele>2</ele>
        <time>2026-07-09T06:59:03.000Z</time>
      </trkpt>
      <trkpt lat="43.31581" lon="3.44234">
        <ele>2</ele>
        <time>2026-07-09T06:59:20.000Z</time>
      </trkpt>
      <trkpt lat="43.31585" lon="3.44259">
        <ele>2</ele>
        <time>2026-07-09T06:59:36.000Z</time>
      </trkpt>
      <trkpt lat="43.31589" lon="3.44283">
        <ele>2</ele>
        <time>2026-07-09T06:59:50.000Z</time>
      </trkpt>
      <trkpt lat="43.31594" lon="3.44308">
        <ele>2</ele>
        <time>2026-07-09T07:00:06.000Z</time>
      </trkpt>
      <trkpt lat="43.31604" lon="3.44328">
        <ele>1</ele>
        <time>2026-07-09T07:04:09.000Z</time>
      </trkpt>
      <trkpt lat="43.31606" lon="3.44352">
        <ele>2</ele>
        <time>2026-07-09T07:04:30.000Z</time>
      </trkpt>
      <trkpt lat="43.31607" lon="3.44377">
        <ele>2</ele>
        <time>2026-07-09T07:04:48.000Z</time>
      </trkpt>
      <trkpt lat="43.31609" lon="3.44402">
        <ele>1</ele>
        <time>2026-07-09T07:05:03.000Z</time>
      </trkpt>
      <trkpt lat="43.31613" lon="3.44428">
        <ele>1</ele>
        <time>2026-07-09T07:05:19.000Z</time>
      </trkpt>
      <trkpt lat="43.31618" lon="3.44454">
        <ele>2</ele>
        <time>2026-07-09T07:05:35.000Z</time>
      </trkpt>
      <trkpt lat="43.31623" lon="3.44479">
        <ele>2</ele>
        <time>2026-07-09T07:05:50.000Z</time>
      </trkpt>
      <trkpt lat="43.31625" lon="3.44504">
        <ele>2</ele>
        <time>2026-07-09T07:06:05.000Z</time>
      </trkpt>
      <trkpt lat="43.31627" lon="3.44531">
        <ele>2</ele>
        <time>2026-07-09T07:06:21.000Z</time>
      </trkpt>
      <trkpt lat="43.31631" lon="3.44556">
        <ele>1</ele>
        <time>2026-07-09T07:06:36.000Z</time>
      </trkpt>
      <trkpt lat="43.31636" lon="3.44583">
        <ele>2</ele>
        <time>2026-07-09T07:06:55.000Z</time>
      </trkpt>
      <trkpt lat="43.31643" lon="3.44609">
        <ele>2</ele>
        <time>2026-07-09T07:07:13.000Z</time>
      </trkpt>
      <trkpt lat="43.31652" lon="3.44632">
        <ele>1</ele>
        <time>2026-07-09T07:07:32.000Z</time>
      </trkpt>
      <trkpt lat="43.31655" lon="3.44655">
        <ele>1</ele>
        <time>2026-07-09T07:07:47.000Z</time>
      </trkpt>
      <trkpt lat="43.31659" lon="3.44681">
        <ele>2</ele>
        <time>2026-07-09T07:08:01.000Z</time>
      </trkpt>
      <trkpt lat="43.31669" lon="3.44703">
        <ele>2</ele>
        <time>2026-07-09T07:08:19.000Z</time>
      </trkpt>
      <trkpt lat="43.31679" lon="3.44725">
        <ele>1</ele>
        <time>2026-07-09T07:08:38.000Z</time>
      </trkpt>
      <trkpt lat="43.31682" lon="3.4475">
        <ele>1</ele>
        <time>2026-07-09T07:08:58.000Z</time>
      </trkpt>
      <trkpt lat="43.31685" lon="3.44775">
        <ele>1</ele>
        <time>2026-07-09T07:09:16.000Z</time>
      </trkpt>
      <trkpt lat="43.31688" lon="3.448">
        <ele>1</ele>
        <time>2026-07-09T07:09:30.000Z</time>
      </trkpt>
      <trkpt lat="43.31692" lon="3.44826">
        <ele>1</ele>
        <time>2026-07-09T07:09:45.000Z</time>
      </trkpt>
      <trkpt lat="43.31695" lon="3.44851">
        <ele>1</ele>
        <time>2026-07-09T07:10:32.000Z</time>
      </trkpt>
      <trkpt lat="43.31694" lon="3.44878">
        <ele>3</ele>
        <time>2026-07-09T07:10:50.000Z</time>
      </trkpt>
      <trkpt lat="43.31697" lon="3.44903">
        <ele>3</ele>
        <time>2026-07-09T07:11:04.000Z</time>
      </trkpt>
      <trkpt lat="43.31699" lon="3.44927">
        <ele>3</ele>
        <time>2026-07-09T07:11:17.000Z</time>
      </trkpt>
      <trkpt lat="43.31705" lon="3.44952">
        <ele>3</ele>
        <time>2026-07-09T07:11:33.000Z</time>
      </trkpt>
      <trkpt lat="43.31708" lon="3.44977">
        <ele>3</ele>
        <time>2026-07-09T07:11:48.000Z</time>
      </trkpt>
      <trkpt lat="43.31713" lon="3.45003">
        <ele>3</ele>
        <time>2026-07-09T07:12:03.000Z</time>
      </trkpt>
      <trkpt lat="43.31717" lon="3.45029">
        <ele>3</ele>
        <time>2026-07-09T07:12:19.000Z</time>
      </trkpt>
      <trkpt lat="43.3172" lon="3.45055">
        <ele>3</ele>
        <time>2026-07-09T07:12:35.000Z</time>
      </trkpt>
      <trkpt lat="43.31723" lon="3.45081">
        <ele>3</ele>
        <time>2026-07-09T07:12:48.000Z</time>
      </trkpt>
      <trkpt lat="43.31727" lon="3.45106">
        <ele>3</ele>
        <time>2026-07-09T07:13:02.000Z</time>
      </trkpt>
      <trkpt lat="43.31733" lon="3.4513">
        <ele>3</ele>
        <time>2026-07-09T07:13:29.000Z</time>
      </trkpt>
      <trkpt lat="43.31738" lon="3.45156">
        <ele>3</ele>
        <time>2026-07-09T07:13:42.000Z</time>
      </trkpt>
      <trkpt lat="43.31742" lon="3.45182">
        <ele>3</ele>
        <time>2026-07-09T07:13:57.000Z</time>
      </trkpt>
      <trkpt lat="43.31747" lon="3.45208">
        <ele>3</ele>
        <time>2026-07-09T07:14:12.000Z</time>
      </trkpt>
      <trkpt lat="43.31751" lon="3.45233">
        <ele>2</ele>
        <time>2026-07-09T07:14:27.000Z</time>
      </trkpt>
      <trkpt lat="43.31755" lon="3.45259">
        <ele>3</ele>
        <time>2026-07-09T07:14:43.000Z</time>
      </trkpt>
      <trkpt lat="43.31759" lon="3.45286">
        <ele>1</ele>
        <time>2026-07-09T07:15:00.000Z</time>
      </trkpt>
      <trkpt lat="43.3176" lon="3.45312">
        <ele>1</ele>
        <time>2026-07-09T07:15:15.000Z</time>
      </trkpt>
      <trkpt lat="43.31761" lon="3.45337">
        <ele>2</ele>
        <time>2026-07-09T07:15:30.000Z</time>
      </trkpt>
      <trkpt lat="43.3177" lon="3.45361">
        <ele>2</ele>
        <time>2026-07-09T07:15:46.000Z</time>
      </trkpt>
      <trkpt lat="43.31776" lon="3.45386">
        <ele>3</ele>
        <time>2026-07-09T07:16:00.000Z</time>
      </trkpt>
      <trkpt lat="43.31781" lon="3.45411">
        <ele>3</ele>
        <time>2026-07-09T07:16:15.000Z</time>
      </trkpt>
      <trkpt lat="43.31784" lon="3.45438">
        <ele>1</ele>
        <time>2026-07-09T07:16:31.000Z</time>
      </trkpt>
      <trkpt lat="43.31788" lon="3.45463">
        <ele>1</ele>
        <time>2026-07-09T07:16:46.000Z</time>
      </trkpt>
      <trkpt lat="43.31791" lon="3.45487">
        <ele>3</ele>
        <time>2026-07-09T07:17:02.000Z</time>
      </trkpt>
      <trkpt lat="43.31793" lon="3.45513">
        <ele>2</ele>
        <time>2026-07-09T07:17:17.000Z</time>
      </trkpt>
      <trkpt lat="43.31797" lon="3.45538">
        <ele>2</ele>
        <time>2026-07-09T07:17:31.000Z</time>
      </trkpt>
      <trkpt lat="43.31801" lon="3.45563">
        <ele>3</ele>
        <time>2026-07-09T07:17:46.000Z</time>
      </trkpt>
      <trkpt lat="43.31806" lon="3.45588">
        <ele>3</ele>
        <time>2026-07-09T07:18:01.000Z</time>
      </trkpt>
      <trkpt lat="43.3181" lon="3.45613">
        <ele>2</ele>
        <time>2026-07-09T07:18:15.000Z</time>
      </trkpt>
      <trkpt lat="43.31815" lon="3.45639">
        <ele>2</ele>
        <time>2026-07-09T07:18:30.000Z</time>
      </trkpt>
      <trkpt lat="43.31819" lon="3.45664">
        <ele>3</ele>
        <time>2026-07-09T07:18:45.000Z</time>
      </trkpt>
      <trkpt lat="43.31824" lon="3.45688">
        <ele>3</ele>
        <time>2026-07-09T07:18:59.000Z</time>
      </trkpt>
      <trkpt lat="43.31829" lon="3.45714">
        <ele>3</ele>
        <time>2026-07-09T07:19:15.000Z</time>
      </trkpt>
      <trkpt lat="43.31833" lon="3.4574">
        <ele>3</ele>
        <time>2026-07-09T07:19:30.000Z</time>
      </trkpt>
      <trkpt lat="43.31836" lon="3.45767">
        <ele>2</ele>
        <time>2026-07-09T07:19:45.000Z</time>
      </trkpt>
      <trkpt lat="43.31839" lon="3.45791">
        <ele>3</ele>
        <time>2026-07-09T07:19:59.000Z</time>
      </trkpt>
      <trkpt lat="43.31843" lon="3.45816">
        <ele>3</ele>
        <time>2026-07-09T07:20:12.000Z</time>
      </trkpt>
      <trkpt lat="43.31848" lon="3.4584">
        <ele>3</ele>
        <time>2026-07-09T07:20:26.000Z</time>
      </trkpt>
      <trkpt lat="43.31851" lon="3.45866">
        <ele>3</ele>
        <time>2026-07-09T07:20:41.000Z</time>
      </trkpt>
      <trkpt lat="43.31857" lon="3.4589">
        <ele>1</ele>
        <time>2026-07-09T07:20:55.000Z</time>
      </trkpt>
      <trkpt lat="43.31863" lon="3.45915">
        <ele>3</ele>
        <time>2026-07-09T07:21:12.000Z</time>
      </trkpt>
      <trkpt lat="43.31867" lon="3.45941">
        <ele>3</ele>
        <time>2026-07-09T07:21:27.000Z</time>
      </trkpt>
      <trkpt lat="43.31871" lon="3.45967">
        <ele>3</ele>
        <time>2026-07-09T07:21:41.000Z</time>
      </trkpt>
      <trkpt lat="43.31874" lon="3.45994">
        <ele>3</ele>
        <time>2026-07-09T07:21:57.000Z</time>
      </trkpt>
      <trkpt lat="43.31878" lon="3.4602">
        <ele>3</ele>
        <time>2026-07-09T07:22:12.000Z</time>
      </trkpt>
      <trkpt lat="43.31882" lon="3.46045">
        <ele>4</ele>
        <time>2026-07-09T07:22:27.000Z</time>
      </trkpt>
      <trkpt lat="43.31886" lon="3.46069">
        <ele>4</ele>
        <time>2026-07-09T07:22:42.000Z</time>
      </trkpt>
      <trkpt lat="43.3189" lon="3.46094">
        <ele>4</ele>
        <time>2026-07-09T07:22:55.000Z</time>
      </trkpt>
      <trkpt lat="43.31895" lon="3.4612">
        <ele>3</ele>
        <time>2026-07-09T07:23:11.000Z</time>
      </trkpt>
      <trkpt lat="43.319" lon="3.46146">
        <ele>3</ele>
        <time>2026-07-09T07:23:27.000Z</time>
      </trkpt>
      <trkpt lat="43.31904" lon="3.46171">
        <ele>4</ele>
        <time>2026-07-09T07:23:42.000Z</time>
      </trkpt>
      <trkpt lat="43.31909" lon="3.46197">
        <ele>4</ele>
        <time>2026-07-09T07:23:58.000Z</time>
      </trkpt>
      <trkpt lat="43.31913" lon="3.46224">
        <ele>3</ele>
        <time>2026-07-09T07:24:13.000Z</time>
      </trkpt>
      <trkpt lat="43.31916" lon="3.4625">
        <ele>4</ele>
        <time>2026-07-09T07:24:29.000Z</time>
      </trkpt>
      <trkpt lat="43.31922" lon="3.46276">
        <ele>4</ele>
        <time>2026-07-09T07:24:44.000Z</time>
      </trkpt>
      <trkpt lat="43.31927" lon="3.46302">
        <ele>3</ele>
        <time>2026-07-09T07:24:59.000Z</time>
      </trkpt>
      <trkpt lat="43.3193" lon="3.46327">
        <ele>3</ele>
        <time>2026-07-09T07:25:13.000Z</time>
      </trkpt>
      <trkpt lat="43.31934" lon="3.46352">
        <ele>3</ele>
        <time>2026-07-09T07:25:28.000Z</time>
      </trkpt>
      <trkpt lat="43.31939" lon="3.46377">
        <ele>3</ele>
        <time>2026-07-09T07:25:43.000Z</time>
      </trkpt>
      <trkpt lat="43.31941" lon="3.46402">
        <ele>4</ele>
        <time>2026-07-09T07:25:59.000Z</time>
      </trkpt>
      <trkpt lat="43.31943" lon="3.4643">
        <ele>4</ele>
        <time>2026-07-09T07:26:15.000Z</time>
      </trkpt>
      <trkpt lat="43.3195" lon="3.46455">
        <ele>3</ele>
        <time>2026-07-09T07:26:33.000Z</time>
      </trkpt>
      <trkpt lat="43.31958" lon="3.46478">
        <ele>3</ele>
        <time>2026-07-09T07:26:50.000Z</time>
      </trkpt>
      <trkpt lat="43.31968" lon="3.46499">
        <ele>2</ele>
        <time>2026-07-09T07:27:06.000Z</time>
      </trkpt>
      <trkpt lat="43.31974" lon="3.46523">
        <ele>2</ele>
        <time>2026-07-09T07:27:28.000Z</time>
      </trkpt>
      <trkpt lat="43.31981" lon="3.46547">
        <ele>1</ele>
        <time>2026-07-09T07:28:05.000Z</time>
      </trkpt>
      <trkpt lat="43.31984" lon="3.46573">
        <ele>1</ele>
        <time>2026-07-09T07:29:47.000Z</time>
      </trkpt>
      <trkpt lat="43.31989" lon="3.46599">
        <ele>1</ele>
        <time>2026-07-09T07:30:15.000Z</time>
      </trkpt>
      <trkpt lat="43.31992" lon="3.46626">
        <ele>1</ele>
        <time>2026-07-09T07:30:41.000Z</time>
      </trkpt>
      <trkpt lat="43.3199" lon="3.46652">
        <ele>2</ele>
        <time>2026-07-09T07:31:17.000Z</time>
      </trkpt>
      <trkpt lat="43.31992" lon="3.46678">
        <ele>2</ele>
        <time>2026-07-09T07:31:42.000Z</time>
      </trkpt>
      <trkpt lat="43.31996" lon="3.46703">
        <ele>2</ele>
        <time>2026-07-09T07:32:03.000Z</time>
      </trkpt>
      <trkpt lat="43.31994" lon="3.4673">
        <ele>5</ele>
        <time>2026-07-09T07:32:45.000Z</time>
      </trkpt>
      <trkpt lat="43.31998" lon="3.46756">
        <ele>4</ele>
        <time>2026-07-09T07:33:08.000Z</time>
      </trkpt>
      <trkpt lat="43.32001" lon="3.46778">
        <ele>2</ele>
        <time>2026-07-09T07:42:46.000Z</time>
      </trkpt>
      <trkpt lat="43.31987" lon="3.46791">
        <ele>2</ele>
        <time>2026-07-09T07:46:16.000Z</time>
      </trkpt>
      <trkpt lat="43.31987" lon="3.46791">
        <ele>2</ele>
        <time>2026-07-09T07:46:17.000Z</time>
      </trkpt>
      <trkpt lat="43.31951" lon="3.46799">
        <ele>3</ele>
        <time>2026-07-09T07:47:09.000Z</time>
      </trkpt>
      <trkpt lat="43.31937" lon="3.4681">
        <ele>3</ele>
        <time>2026-07-09T07:47:28.000Z</time>
      </trkpt>
      <trkpt lat="43.31927" lon="3.46807">
        <ele>2</ele>
        <time>2026-07-09T07:47:39.000Z</time>
      </trkpt>
      <trkpt lat="43.31907" lon="3.46811">
        <ele>2</ele>
        <time>2026-07-09T07:48:02.000Z</time>
      </trkpt>
      <trkpt lat="43.31805" lon="3.46845">
        <ele>1</ele>
        <time>2026-07-09T07:50:02.000Z</time>
      </trkpt>
      <trkpt lat="43.31805" lon="3.46847">
        <ele>1</ele>
        <time>2026-07-09T07:53:51.000Z</time>
      </trkpt>
      <trkpt lat="43.31807" lon="3.46873">
        <ele>2</ele>
        <time>2026-07-09T07:54:10.000Z</time>
      </trkpt>
      <trkpt lat="43.31804" lon="3.46899">
        <ele>3</ele>
        <time>2026-07-09T07:54:28.000Z</time>
      </trkpt>
      <trkpt lat="43.31806" lon="3.46925">
        <ele>3</ele>
        <time>2026-07-09T07:54:45.000Z</time>
      </trkpt>
      <trkpt lat="43.31806" lon="3.46951">
        <ele>3</ele>
        <time>2026-07-09T07:55:00.000Z</time>
      </trkpt>
      <trkpt lat="43.31807" lon="3.46979">
        <ele>3</ele>
        <time>2026-07-09T07:55:16.000Z</time>
      </trkpt>
      <trkpt lat="43.31811" lon="3.47005">
        <ele>3</ele>
        <time>2026-07-09T07:55:31.000Z</time>
      </trkpt>
      <trkpt lat="43.31812" lon="3.47032">
        <ele>3</ele>
        <time>2026-07-09T07:55:48.000Z</time>
      </trkpt>
      <trkpt lat="43.31813" lon="3.47059">
        <ele>4</ele>
        <time>2026-07-09T07:56:17.000Z</time>
      </trkpt>
      <trkpt lat="43.31814" lon="3.47082">
        <ele>3</ele>
        <time>2026-07-09T07:56:33.000Z</time>
      </trkpt>
      <trkpt lat="43.31803" lon="3.471">
        <ele>3</ele>
        <time>2026-07-09T07:56:54.000Z</time>
      </trkpt>
      <trkpt lat="43.31794" lon="3.47121">
        <ele>3</ele>
        <time>2026-07-09T07:58:43.000Z</time>
      </trkpt>
      <trkpt lat="43.31789" lon="3.47145">
        <ele>3</ele>
        <time>2026-07-09T07:59:04.000Z</time>
      </trkpt>
      <trkpt lat="43.31797" lon="3.47166">
        <ele>3</ele>
        <time>2026-07-09T07:59:45.000Z</time>
      </trkpt>
      <trkpt lat="43.31807" lon="3.47184">
        <ele>3</ele>
        <time>2026-07-09T08:01:21.000Z</time>
      </trkpt>
      <trkpt lat="43.31803" lon="3.47201">
        <ele>3</ele>
        <time>2026-07-09T08:02:00.000Z</time>
      </trkpt>
      <trkpt lat="43.31781" lon="3.47151">
        <ele>3</ele>
        <time>2026-07-09T08:02:49.000Z</time>
      </trkpt>
      <trkpt lat="43.31769" lon="3.47153">
        <ele>3</ele>
        <time>2026-07-09T08:03:02.000Z</time>
      </trkpt>
      <trkpt lat="43.31759" lon="3.47141">
        <ele>3</ele>
        <time>2026-07-09T08:03:17.000Z</time>
      </trkpt>
      <trkpt lat="43.3175" lon="3.47148">
        <ele>3</ele>
        <time>2026-07-09T08:03:28.000Z</time>
      </trkpt>
      <trkpt lat="43.31755" lon="3.47159">
        <ele>3</ele>
        <time>2026-07-09T08:10:19.000Z</time>
      </trkpt>
      <trkpt lat="43.31745" lon="3.47143">
        <ele>3</ele>
        <time>2026-07-09T08:11:28.000Z</time>
      </trkpt>
      <trkpt lat="43.31749" lon="3.4712">
        <ele>3</ele>
        <time>2026-07-09T08:12:22.000Z</time>
      </trkpt>
      <trkpt lat="43.31752" lon="3.47097">
        <ele>3</ele>
        <time>2026-07-09T08:13:26.000Z</time>
      </trkpt>
      <trkpt lat="43.31738" lon="3.47085">
        <ele>2</ele>
        <time>2026-07-09T08:13:46.000Z</time>
      </trkpt>
      <trkpt lat="43.31722" lon="3.47075">
        <ele>3</ele>
        <time>2026-07-09T08:16:23.000Z</time>
      </trkpt>
      <trkpt lat="43.31713" lon="3.47056">
        <ele>3</ele>
        <time>2026-07-09T08:16:43.000Z</time>
      </trkpt>
      <trkpt lat="43.31697" lon="3.47052">
        <ele>3</ele>
        <time>2026-07-09T08:20:58.000Z</time>
      </trkpt>
      <trkpt lat="43.31677" lon="3.47052">
        <ele>3</ele>
        <time>2026-07-09T08:21:16.000Z</time>
      </trkpt>
      <trkpt lat="43.31657" lon="3.47057">
        <ele>3</ele>
        <time>2026-07-09T08:21:35.000Z</time>
      </trkpt>
      <trkpt lat="43.31641" lon="3.47055">
        <ele>3</ele>
        <time>2026-07-09T08:21:52.000Z</time>
      </trkpt>
      <trkpt lat="43.3164" lon="3.47033">
        <ele>3</ele>
        <time>2026-07-09T08:22:10.000Z</time>
      </trkpt>
      <trkpt lat="43.31642" lon="3.47008">
        <ele>3</ele>
        <time>2026-07-09T08:22:26.000Z</time>
      </trkpt>
      <trkpt lat="43.31636" lon="3.46984">
        <ele>3</ele>
        <time>2026-07-09T08:22:40.000Z</time>
      </trkpt>
      <trkpt lat="43.31626" lon="3.46963">
        <ele>3</ele>
        <time>2026-07-09T08:22:58.000Z</time>
      </trkpt>
      <trkpt lat="43.3161" lon="3.4695">
        <ele>3</ele>
        <time>2026-07-09T08:23:14.000Z</time>
      </trkpt>
      <trkpt lat="43.31592" lon="3.46941">
        <ele>3</ele>
        <time>2026-07-09T08:23:31.000Z</time>
      </trkpt>
      <trkpt lat="43.31573" lon="3.46942">
        <ele>3</ele>
        <time>2026-07-09T08:23:49.000Z</time>
      </trkpt>
      <trkpt lat="43.31559" lon="3.46928">
        <ele>4</ele>
        <time>2026-07-09T08:24:18.000Z</time>
      </trkpt>
      <trkpt lat="43.31554" lon="3.46904">
        <ele>2</ele>
        <time>2026-07-09T08:24:38.000Z</time>
      </trkpt>
      <trkpt lat="43.31547" lon="3.46873">
        <ele>3</ele>
        <time>2026-07-09T08:25:18.000Z</time>
      </trkpt>
      <trkpt lat="43.31544" lon="3.46847">
        <ele>5</ele>
        <time>2026-07-09T08:25:44.000Z</time>
      </trkpt>
      <trkpt lat="43.31537" lon="3.46826">
        <ele>5</ele>
        <time>2026-07-09T08:25:57.000Z</time>
      </trkpt>
      <trkpt lat="43.31521" lon="3.46819">
        <ele>5</ele>
        <time>2026-07-09T08:26:11.000Z</time>
      </trkpt>
      <trkpt lat="43.31504" lon="3.46827">
        <ele>4</ele>
        <time>2026-07-09T08:26:26.000Z</time>
      </trkpt>
      <trkpt lat="43.31488" lon="3.46815">
        <ele>4</ele>
        <time>2026-07-09T08:26:54.000Z</time>
      </trkpt>
      <trkpt lat="43.31472" lon="3.46797">
        <ele>3</ele>
        <time>2026-07-09T08:27:14.000Z</time>
      </trkpt>
      <trkpt lat="43.31459" lon="3.46779">
        <ele>3</ele>
        <time>2026-07-09T08:27:30.000Z</time>
      </trkpt>
      <trkpt lat="43.31443" lon="3.46763">
        <ele>3</ele>
        <time>2026-07-09T08:27:46.000Z</time>
      </trkpt>
      <trkpt lat="43.31428" lon="3.4675">
        <ele>3</ele>
        <time>2026-07-09T08:27:59.000Z</time>
      </trkpt>
      <trkpt lat="43.31412" lon="3.46735">
        <ele>1</ele>
        <time>2026-07-09T08:28:15.000Z</time>
      </trkpt>
      <trkpt lat="43.31396" lon="3.4672">
        <ele>1.6</ele>
        <time>2026-07-09T08:28:33.000Z</time>
      </trkpt>
      <trkpt lat="43.31382" lon="3.46705">
        <ele>1</ele>
        <time>2026-07-09T08:28:57.000Z</time>
      </trkpt>
      <trkpt lat="43.31368" lon="3.46689">
        <ele>3</ele>
        <time>2026-07-09T08:29:14.000Z</time>
      </trkpt>
      <trkpt lat="43.31354" lon="3.4667">
        <ele>2</ele>
        <time>2026-07-09T08:29:29.000Z</time>
      </trkpt>
      <trkpt lat="43.31338" lon="3.46654">
        <ele>2</ele>
        <time>2026-07-09T08:29:46.000Z</time>
      </trkpt>
      <trkpt lat="43.31322" lon="3.46638">
        <ele>2</ele>
        <time>2026-07-09T08:30:03.000Z</time>
      </trkpt>
      <trkpt lat="43.31307" lon="3.46623">
        <ele>2</ele>
        <time>2026-07-09T08:30:18.000Z</time>
      </trkpt>
      <trkpt lat="43.31293" lon="3.46607">
        <ele>3</ele>
        <time>2026-07-09T08:30:32.000Z</time>
      </trkpt>
      <trkpt lat="43.31277" lon="3.46592">
        <ele>2</ele>
        <time>2026-07-09T08:30:51.000Z</time>
      </trkpt>
      <trkpt lat="43.31261" lon="3.46578">
        <ele>2</ele>
        <time>2026-07-09T08:31:07.000Z</time>
      </trkpt>
      <trkpt lat="43.31246" lon="3.46564">
        <ele>3</ele>
        <time>2026-07-09T08:31:23.000Z</time>
      </trkpt>
      <trkpt lat="43.3123" lon="3.4655">
        <ele>3</ele>
        <time>2026-07-09T08:31:39.000Z</time>
      </trkpt>
      <trkpt lat="43.31214" lon="3.46536">
        <ele>2</ele>
        <time>2026-07-09T08:31:57.000Z</time>
      </trkpt>
      <trkpt lat="43.31197" lon="3.46523">
        <ele>1</ele>
        <time>2026-07-09T08:32:14.000Z</time>
      </trkpt>
      <trkpt lat="43.31181" lon="3.4651">
        <ele>2</ele>
        <time>2026-07-09T08:32:37.000Z</time>
      </trkpt>
      <trkpt lat="43.31164" lon="3.46495">
        <ele>2</ele>
        <time>2026-07-09T08:32:53.000Z</time>
      </trkpt>
      <trkpt lat="43.31149" lon="3.46481">
        <ele>2</ele>
        <time>2026-07-09T08:33:10.000Z</time>
      </trkpt>
      <trkpt lat="43.31132" lon="3.46472">
        <ele>2</ele>
        <time>2026-07-09T08:33:52.000Z</time>
      </trkpt>
      <trkpt lat="43.31115" lon="3.4646">
        <ele>2</ele>
        <time>2026-07-09T08:34:08.000Z</time>
      </trkpt>
      <trkpt lat="43.31098" lon="3.46447">
        <ele>1</ele>
        <time>2026-07-09T08:34:26.000Z</time>
      </trkpt>
      <trkpt lat="43.3108" lon="3.46438">
        <ele>1</ele>
        <time>2026-07-09T08:35:05.000Z</time>
      </trkpt>
      <trkpt lat="43.31065" lon="3.46423">
        <ele>2</ele>
        <time>2026-07-09T08:35:21.000Z</time>
      </trkpt>
      <trkpt lat="43.31047" lon="3.46414">
        <ele>2</ele>
        <time>2026-07-09T08:36:01.000Z</time>
      </trkpt>
      <trkpt lat="43.31029" lon="3.46406">
        <ele>2</ele>
        <time>2026-07-09T08:36:14.000Z</time>
      </trkpt>
      <trkpt lat="43.31012" lon="3.46398">
        <ele>2</ele>
        <time>2026-07-09T08:36:29.000Z</time>
      </trkpt>
      <trkpt lat="43.30994" lon="3.464">
        <ele>2</ele>
        <time>2026-07-09T08:38:57.000Z</time>
      </trkpt>
      <trkpt lat="43.30976" lon="3.46395">
        <ele>2</ele>
        <time>2026-07-09T08:39:11.000Z</time>
      </trkpt>
      <trkpt lat="43.30959" lon="3.46391">
        <ele>2</ele>
        <time>2026-07-09T08:39:25.000Z</time>
      </trkpt>
      <trkpt lat="43.30941" lon="3.46383">
        <ele>2</ele>
        <time>2026-07-09T08:39:41.000Z</time>
      </trkpt>
      <trkpt lat="43.30923" lon="3.46377">
        <ele>2</ele>
        <time>2026-07-09T08:39:56.000Z</time>
      </trkpt>
      <trkpt lat="43.30904" lon="3.4638">
        <ele>2</ele>
        <time>2026-07-09T08:40:12.000Z</time>
      </trkpt>
      <trkpt lat="43.30885" lon="3.46381">
        <ele>2</ele>
        <time>2026-07-09T08:40:28.000Z</time>
      </trkpt>
      <trkpt lat="43.30866" lon="3.46381">
        <ele>1</ele>
        <time>2026-07-09T08:40:44.000Z</time>
      </trkpt>
      <trkpt lat="43.30847" lon="3.46381">
        <ele>1</ele>
        <time>2026-07-09T08:40:59.000Z</time>
      </trkpt>
      <trkpt lat="43.30829" lon="3.46382">
        <ele>1</ele>
        <time>2026-07-09T08:41:14.000Z</time>
      </trkpt>
      <trkpt lat="43.30811" lon="3.46383">
        <ele>2</ele>
        <time>2026-07-09T08:41:28.000Z</time>
      </trkpt>
      <trkpt lat="43.30791" lon="3.46384">
        <ele>1</ele>
        <time>2026-07-09T08:41:43.000Z</time>
      </trkpt>
      <trkpt lat="43.30772" lon="3.46385">
        <ele>1</ele>
        <time>2026-07-09T08:41:59.000Z</time>
      </trkpt>
      <trkpt lat="43.30753" lon="3.46385">
        <ele>1</ele>
        <time>2026-07-09T08:42:13.000Z</time>
      </trkpt>
      <trkpt lat="43.30734" lon="3.46384">
        <ele>1</ele>
        <time>2026-07-09T08:42:27.000Z</time>
      </trkpt>
      <trkpt lat="43.30716" lon="3.46385">
        <ele>1</ele>
        <time>2026-07-09T08:42:42.000Z</time>
      </trkpt>
      <trkpt lat="43.30696" lon="3.46388">
        <ele>2</ele>
        <time>2026-07-09T08:42:58.000Z</time>
      </trkpt>
      <trkpt lat="43.30677" lon="3.46387">
        <ele>2</ele>
        <time>2026-07-09T08:43:14.000Z</time>
      </trkpt>
      <trkpt lat="43.30658" lon="3.46386">
        <ele>2</ele>
        <time>2026-07-09T08:43:30.000Z</time>
      </trkpt>
      <trkpt lat="43.30638" lon="3.46388">
        <ele>2</ele>
        <time>2026-07-09T08:43:46.000Z</time>
      </trkpt>
      <trkpt lat="43.3062" lon="3.46388">
        <ele>2</ele>
        <time>2026-07-09T08:44:01.000Z</time>
      </trkpt>
      <trkpt lat="43.30602" lon="3.46394">
        <ele>1</ele>
        <time>2026-07-09T08:44:22.000Z</time>
      </trkpt>
      <trkpt lat="43.30583" lon="3.46394">
        <ele>1</ele>
        <time>2026-07-09T08:44:37.000Z</time>
      </trkpt>
      <trkpt lat="43.30564" lon="3.46395">
        <ele>1</ele>
        <time>2026-07-09T08:44:53.000Z</time>
      </trkpt>
      <trkpt lat="43.30544" lon="3.46394">
        <ele>2</ele>
        <time>2026-07-09T08:45:09.000Z</time>
      </trkpt>
      <trkpt lat="43.30526" lon="3.46392">
        <ele>1</ele>
        <time>2026-07-09T08:45:23.000Z</time>
      </trkpt>
      <trkpt lat="43.30508" lon="3.4639">
        <ele>1</ele>
        <time>2026-07-09T08:45:37.000Z</time>
      </trkpt>
      <trkpt lat="43.30489" lon="3.46389">
        <ele>1</ele>
        <time>2026-07-09T08:45:52.000Z</time>
      </trkpt>
      <trkpt lat="43.30471" lon="3.46387">
        <ele>1</ele>
        <time>2026-07-09T08:46:05.000Z</time>
      </trkpt>
      <trkpt lat="43.30453" lon="3.46381">
        <ele>1</ele>
        <time>2026-07-09T08:46:23.000Z</time>
      </trkpt>
      <trkpt lat="43.30435" lon="3.46377">
        <ele>1</ele>
        <time>2026-07-09T08:46:36.000Z</time>
      </trkpt>
      <trkpt lat="43.30416" lon="3.46372">
        <ele>1</ele>
        <time>2026-07-09T08:46:52.000Z</time>
      </trkpt>
      <trkpt lat="43.30397" lon="3.46364">
        <ele>1</ele>
        <time>2026-07-09T08:47:07.000Z</time>
      </trkpt>
      <trkpt lat="43.30378" lon="3.46361">
        <ele>1</ele>
        <time>2026-07-09T08:47:23.000Z</time>
      </trkpt>
      <trkpt lat="43.30358" lon="3.46357">
        <ele>1</ele>
        <time>2026-07-09T08:47:39.000Z</time>
      </trkpt>
      <trkpt lat="43.30341" lon="3.46353">
        <ele>1</ele>
        <time>2026-07-09T08:47:54.000Z</time>
      </trkpt>
      <trkpt lat="43.30324" lon="3.46346">
        <ele>1</ele>
        <time>2026-07-09T08:48:08.000Z</time>
      </trkpt>
      <trkpt lat="43.30306" lon="3.46339">
        <ele>1</ele>
        <time>2026-07-09T08:48:25.000Z</time>
      </trkpt>
      <trkpt lat="43.30287" lon="3.46332">
        <ele>1</ele>
        <time>2026-07-09T08:48:42.000Z</time>
      </trkpt>
      <trkpt lat="43.30269" lon="3.46325">
        <ele>1</ele>
        <time>2026-07-09T08:48:58.000Z</time>
      </trkpt>
      <trkpt lat="43.30249" lon="3.4632">
        <ele>1</ele>
        <time>2026-07-09T08:49:17.000Z</time>
      </trkpt>
      <trkpt lat="43.30232" lon="3.4631">
        <ele>1</ele>
        <time>2026-07-09T08:49:32.000Z</time>
      </trkpt>
      <trkpt lat="43.30214" lon="3.46302">
        <ele>1</ele>
        <time>2026-07-09T08:49:50.000Z</time>
      </trkpt>
      <trkpt lat="43.30197" lon="3.46294">
        <ele>1</ele>
        <time>2026-07-09T08:50:04.000Z</time>
      </trkpt>
      <trkpt lat="43.30179" lon="3.46283">
        <ele>1</ele>
        <time>2026-07-09T08:50:20.000Z</time>
      </trkpt>
      <trkpt lat="43.30161" lon="3.46272">
        <ele>1</ele>
        <time>2026-07-09T08:50:35.000Z</time>
      </trkpt>
      <trkpt lat="43.30143" lon="3.46262">
        <ele>1</ele>
        <time>2026-07-09T08:50:50.000Z</time>
      </trkpt>
      <trkpt lat="43.30126" lon="3.46251">
        <ele>1</ele>
        <time>2026-07-09T08:51:06.000Z</time>
      </trkpt>
      <trkpt lat="43.30108" lon="3.4624">
        <ele>1</ele>
        <time>2026-07-09T08:51:21.000Z</time>
      </trkpt>
      <trkpt lat="43.30092" lon="3.4623">
        <ele>1</ele>
        <time>2026-07-09T08:53:22.000Z</time>
      </trkpt>
      <trkpt lat="43.30078" lon="3.46213">
        <ele>1</ele>
        <time>2026-07-09T08:53:42.000Z</time>
      </trkpt>
      <trkpt lat="43.30063" lon="3.46197">
        <ele>1</ele>
        <time>2026-07-09T08:54:01.000Z</time>
      </trkpt>
      <trkpt lat="43.30048" lon="3.46183">
        <ele>1</ele>
        <time>2026-07-09T08:54:16.000Z</time>
      </trkpt>
      <trkpt lat="43.30033" lon="3.46169">
        <ele>1</ele>
        <time>2026-07-09T08:54:38.000Z</time>
      </trkpt>
      <trkpt lat="43.30023" lon="3.46149">
        <ele>1</ele>
        <time>2026-07-09T08:54:53.000Z</time>
      </trkpt>
      <trkpt lat="43.30014" lon="3.46127">
        <ele>1</ele>
        <time>2026-07-09T08:55:08.000Z</time>
      </trkpt>
      <trkpt lat="43.30006" lon="3.46103">
        <ele>1</ele>
        <time>2026-07-09T08:55:24.000Z</time>
      </trkpt>
      <trkpt lat="43.29999" lon="3.46079">
        <ele>1</ele>
        <time>2026-07-09T08:55:39.000Z</time>
      </trkpt>
      <trkpt lat="43.29994" lon="3.46055">
        <ele>1</ele>
        <time>2026-07-09T08:55:54.000Z</time>
      </trkpt>
      <trkpt lat="43.29989" lon="3.46029">
        <ele>1</ele>
        <time>2026-07-09T08:56:10.000Z</time>
      </trkpt>
      <trkpt lat="43.29986" lon="3.46004">
        <ele>1</ele>
        <time>2026-07-09T08:56:25.000Z</time>
      </trkpt>
      <trkpt lat="43.29983" lon="3.45979">
        <ele>1</ele>
        <time>2026-07-09T08:56:41.000Z</time>
      </trkpt>
      <trkpt lat="43.2998" lon="3.45954">
        <ele>1</ele>
        <time>2026-07-09T08:56:55.000Z</time>
      </trkpt>
      <trkpt lat="43.29977" lon="3.45929">
        <ele>1</ele>
        <time>2026-07-09T08:57:10.000Z</time>
      </trkpt>
      <trkpt lat="43.29974" lon="3.45904">
        <ele>1</ele>
        <time>2026-07-09T08:57:25.000Z</time>
      </trkpt>
      <trkpt lat="43.29974" lon="3.45878">
        <ele>1</ele>
        <time>2026-07-09T08:57:41.000Z</time>
      </trkpt>
      <trkpt lat="43.29972" lon="3.45853">
        <ele>1</ele>
        <time>2026-07-09T08:57:59.000Z</time>
      </trkpt>
      <trkpt lat="43.29967" lon="3.45828">
        <ele>1</ele>
        <time>2026-07-09T08:58:29.000Z</time>
      </trkpt>
      <trkpt lat="43.29965" lon="3.45803">
        <ele>1</ele>
        <time>2026-07-09T08:58:47.000Z</time>
      </trkpt>
      <trkpt lat="43.29961" lon="3.45779">
        <ele>1</ele>
        <time>2026-07-09T08:59:01.000Z</time>
      </trkpt>
      <trkpt lat="43.29956" lon="3.45754">
        <ele>1</ele>
        <time>2026-07-09T08:59:16.000Z</time>
      </trkpt>
      <trkpt lat="43.29953" lon="3.45728">
        <ele>1</ele>
        <time>2026-07-09T08:59:33.000Z</time>
      </trkpt>
      <trkpt lat="43.29948" lon="3.45701">
        <ele>1</ele>
        <time>2026-07-09T08:59:49.000Z</time>
      </trkpt>
      <trkpt lat="43.29944" lon="3.45676">
        <ele>1</ele>
        <time>2026-07-09T09:00:04.000Z</time>
      </trkpt>
      <trkpt lat="43.29938" lon="3.45652">
        <ele>1</ele>
        <time>2026-07-09T09:00:19.000Z</time>
      </trkpt>
      <trkpt lat="43.29931" lon="3.45627">
        <ele>1</ele>
        <time>2026-07-09T09:00:34.000Z</time>
      </trkpt>
      <trkpt lat="43.29924" lon="3.45605">
        <ele>1</ele>
        <time>2026-07-09T09:00:48.000Z</time>
      </trkpt>
      <trkpt lat="43.29916" lon="3.4558">
        <ele>1</ele>
        <time>2026-07-09T09:01:04.000Z</time>
      </trkpt>
      <trkpt lat="43.29909" lon="3.45557">
        <ele>1</ele>
        <time>2026-07-09T09:01:19.000Z</time>
      </trkpt>
      <trkpt lat="43.29902" lon="3.45534">
        <ele>1</ele>
        <time>2026-07-09T09:01:54.000Z</time>
      </trkpt>
      <trkpt lat="43.29895" lon="3.4551">
        <ele>1</ele>
        <time>2026-07-09T09:02:08.000Z</time>
      </trkpt>
      <trkpt lat="43.29887" lon="3.45488">
        <ele>1</ele>
        <time>2026-07-09T09:02:22.000Z</time>
      </trkpt>
      <trkpt lat="43.29879" lon="3.45464">
        <ele>1</ele>
        <time>2026-07-09T09:02:38.000Z</time>
      </trkpt>
      <trkpt lat="43.29871" lon="3.4544">
        <ele>1</ele>
        <time>2026-07-09T09:02:57.000Z</time>
      </trkpt>
      <trkpt lat="43.29863" lon="3.45417">
        <ele>1</ele>
        <time>2026-07-09T09:03:12.000Z</time>
      </trkpt>
      <trkpt lat="43.29857" lon="3.45392">
        <ele>1</ele>
        <time>2026-07-09T09:03:30.000Z</time>
      </trkpt>
      <trkpt lat="43.2985" lon="3.45368">
        <ele>1</ele>
        <time>2026-07-09T09:03:57.000Z</time>
      </trkpt>
      <trkpt lat="43.29841" lon="3.45347">
        <ele>1</ele>
        <time>2026-07-09T09:04:11.000Z</time>
      </trkpt>
      <trkpt lat="43.29834" lon="3.45325">
        <ele>1</ele>
        <time>2026-07-09T09:04:27.000Z</time>
      </trkpt>
      <trkpt lat="43.29825" lon="3.45303">
        <ele>1</ele>
        <time>2026-07-09T09:04:42.000Z</time>
      </trkpt>
      <trkpt lat="43.29816" lon="3.4528">
        <ele>1</ele>
        <time>2026-07-09T09:04:58.000Z</time>
      </trkpt>
      <trkpt lat="43.29808" lon="3.45257">
        <ele>1</ele>
        <time>2026-07-09T09:05:14.000Z</time>
      </trkpt>
      <trkpt lat="43.29797" lon="3.45237">
        <ele>1</ele>
        <time>2026-07-09T09:05:31.000Z</time>
      </trkpt>
      <trkpt lat="43.29787" lon="3.45217">
        <ele>2</ele>
        <time>2026-07-09T09:05:48.000Z</time>
      </trkpt>
      <trkpt lat="43.29778" lon="3.45195">
        <ele>2</ele>
        <time>2026-07-09T09:06:01.000Z</time>
      </trkpt>
      <trkpt lat="43.29767" lon="3.45177">
        <ele>1</ele>
        <time>2026-07-09T09:06:15.000Z</time>
      </trkpt>
      <trkpt lat="43.29753" lon="3.45159">
        <ele>1</ele>
        <time>2026-07-09T09:06:30.000Z</time>
      </trkpt>
      <trkpt lat="43.2974" lon="3.45139">
        <ele>1</ele>
        <time>2026-07-09T09:06:47.000Z</time>
      </trkpt>
      <trkpt lat="43.29727" lon="3.4512">
        <ele>1</ele>
        <time>2026-07-09T09:07:03.000Z</time>
      </trkpt>
      <trkpt lat="43.29714" lon="3.45102">
        <ele>1</ele>
        <time>2026-07-09T09:07:18.000Z</time>
      </trkpt>
      <trkpt lat="43.297" lon="3.45084">
        <ele>1</ele>
        <time>2026-07-09T09:07:35.000Z</time>
      </trkpt>
      <trkpt lat="43.29686" lon="3.45068">
        <ele>1</ele>
        <time>2026-07-09T09:07:51.000Z</time>
      </trkpt>
      <trkpt lat="43.29672" lon="3.45051">
        <ele>1</ele>
        <time>2026-07-09T09:08:04.000Z</time>
      </trkpt>
      <trkpt lat="43.29657" lon="3.45034">
        <ele>1</ele>
        <time>2026-07-09T09:08:21.000Z</time>
      </trkpt>
      <trkpt lat="43.29641" lon="3.45017">
        <ele>1</ele>
        <time>2026-07-09T09:08:39.000Z</time>
      </trkpt>
      <trkpt lat="43.29627" lon="3.45">
        <ele>1</ele>
        <time>2026-07-09T09:08:54.000Z</time>
      </trkpt>
      <trkpt lat="43.29614" lon="3.44979">
        <ele>1</ele>
        <time>2026-07-09T09:09:10.000Z</time>
      </trkpt>
      <trkpt lat="43.296" lon="3.44963">
        <ele>1</ele>
        <time>2026-07-09T09:09:25.000Z</time>
      </trkpt>
      <trkpt lat="43.29584" lon="3.4495">
        <ele>1</ele>
        <time>2026-07-09T09:09:39.000Z</time>
      </trkpt>
      <trkpt lat="43.29569" lon="3.44935">
        <ele>1</ele>
        <time>2026-07-09T09:09:57.000Z</time>
      </trkpt>
      <trkpt lat="43.29553" lon="3.44919">
        <ele>1</ele>
        <time>2026-07-09T09:10:12.000Z</time>
      </trkpt>
      <trkpt lat="43.29538" lon="3.44904">
        <ele>1</ele>
        <time>2026-07-09T09:12:07.000Z</time>
      </trkpt>
      <trkpt lat="43.29524" lon="3.44888">
        <ele>1</ele>
        <time>2026-07-09T09:12:20.000Z</time>
      </trkpt>
      <trkpt lat="43.2951" lon="3.44872">
        <ele>1</ele>
        <time>2026-07-09T09:12:36.000Z</time>
      </trkpt>
      <trkpt lat="43.29496" lon="3.44855">
        <ele>1</ele>
        <time>2026-07-09T09:12:51.000Z</time>
      </trkpt>
      <trkpt lat="43.2948" lon="3.44839">
        <ele>1</ele>
        <time>2026-07-09T09:13:08.000Z</time>
      </trkpt>
      <trkpt lat="43.29464" lon="3.44821">
        <ele>1</ele>
        <time>2026-07-09T09:13:25.000Z</time>
      </trkpt>
      <trkpt lat="43.2945" lon="3.44801">
        <ele>1</ele>
        <time>2026-07-09T09:13:42.000Z</time>
      </trkpt>
      <trkpt lat="43.29436" lon="3.44784">
        <ele>1</ele>
        <time>2026-07-09T09:13:57.000Z</time>
      </trkpt>
      <trkpt lat="43.29421" lon="3.44768">
        <ele>1</ele>
        <time>2026-07-09T09:14:13.000Z</time>
      </trkpt>
      <trkpt lat="43.29407" lon="3.44752">
        <ele>1</ele>
        <time>2026-07-09T09:14:29.000Z</time>
      </trkpt>
      <trkpt lat="43.29392" lon="3.44735">
        <ele>1</ele>
        <time>2026-07-09T09:14:46.000Z</time>
      </trkpt>
      <trkpt lat="43.29377" lon="3.44718">
        <ele>1</ele>
        <time>2026-07-09T09:15:01.000Z</time>
      </trkpt>
      <trkpt lat="43.29362" lon="3.44701">
        <ele>1</ele>
        <time>2026-07-09T09:15:18.000Z</time>
      </trkpt>
      <trkpt lat="43.29347" lon="3.44683">
        <ele>1</ele>
        <time>2026-07-09T09:15:33.000Z</time>
      </trkpt>
      <trkpt lat="43.29333" lon="3.44667">
        <ele>2</ele>
        <time>2026-07-09T09:15:50.000Z</time>
      </trkpt>
      <trkpt lat="43.29318" lon="3.4465">
        <ele>1</ele>
        <time>2026-07-09T09:16:07.000Z</time>
      </trkpt>
      <trkpt lat="43.29303" lon="3.44633">
        <ele>2</ele>
        <time>2026-07-09T09:16:23.000Z</time>
      </trkpt>
      <trkpt lat="43.29287" lon="3.44619">
        <ele>2</ele>
        <time>2026-07-09T09:16:39.000Z</time>
      </trkpt>
      <trkpt lat="43.29272" lon="3.44605">
        <ele>2</ele>
        <time>2026-07-09T09:16:53.000Z</time>
      </trkpt>
      <trkpt lat="43.29256" lon="3.4459">
        <ele>2</ele>
        <time>2026-07-09T09:17:09.000Z</time>
      </trkpt>
      <trkpt lat="43.2924" lon="3.44577">
        <ele>2</ele>
        <time>2026-07-09T09:17:22.000Z</time>
      </trkpt>
      <trkpt lat="43.29224" lon="3.44565">
        <ele>2</ele>
        <time>2026-07-09T09:17:37.000Z</time>
      </trkpt>
      <trkpt lat="43.29209" lon="3.44552">
        <ele>2</ele>
        <time>2026-07-09T09:17:51.000Z</time>
      </trkpt>
      <trkpt lat="43.29192" lon="3.44538">
        <ele>2</ele>
        <time>2026-07-09T09:18:05.000Z</time>
      </trkpt>
      <trkpt lat="43.29175" lon="3.44528">
        <ele>1</ele>
        <time>2026-07-09T09:18:19.000Z</time>
      </trkpt>
      <trkpt lat="43.29159" lon="3.44514">
        <ele>2</ele>
        <time>2026-07-09T09:18:35.000Z</time>
      </trkpt>
      <trkpt lat="43.29144" lon="3.445">
        <ele>2</ele>
        <time>2026-07-09T09:18:51.000Z</time>
      </trkpt>
      <trkpt lat="43.29126" lon="3.44489">
        <ele>2</ele>
        <time>2026-07-09T09:19:15.000Z</time>
      </trkpt>
      <trkpt lat="43.2911" lon="3.44475">
        <ele>2</ele>
        <time>2026-07-09T09:19:31.000Z</time>
      </trkpt>
      <trkpt lat="43.29094" lon="3.44463">
        <ele>2</ele>
        <time>2026-07-09T09:19:47.000Z</time>
      </trkpt>
      <trkpt lat="43.29078" lon="3.44448">
        <ele>2</ele>
        <time>2026-07-09T09:20:05.000Z</time>
      </trkpt>
      <trkpt lat="43.29062" lon="3.44437">
        <ele>2</ele>
        <time>2026-07-09T09:20:21.000Z</time>
      </trkpt>
      <trkpt lat="43.29046" lon="3.44426">
        <ele>2</ele>
        <time>2026-07-09T09:20:35.000Z</time>
      </trkpt>
      <trkpt lat="43.29029" lon="3.44415">
        <ele>1</ele>
        <time>2026-07-09T09:20:49.000Z</time>
      </trkpt>
      <trkpt lat="43.29013" lon="3.44401">
        <ele>1</ele>
        <time>2026-07-09T09:21:05.000Z</time>
      </trkpt>
      <trkpt lat="43.28998" lon="3.44388">
        <ele>1</ele>
        <time>2026-07-09T09:21:19.000Z</time>
      </trkpt>
      <trkpt lat="43.28981" lon="3.44378">
        <ele>1</ele>
        <time>2026-07-09T09:21:35.000Z</time>
      </trkpt>
      <trkpt lat="43.28964" lon="3.44369">
        <ele>2</ele>
        <time>2026-07-09T09:21:49.000Z</time>
      </trkpt>
      <trkpt lat="43.28946" lon="3.44359">
        <ele>2</ele>
        <time>2026-07-09T09:22:05.000Z</time>
      </trkpt>
      <trkpt lat="43.28928" lon="3.4435">
        <ele>2</ele>
        <time>2026-07-09T09:22:20.000Z</time>
      </trkpt>
      <trkpt lat="43.28911" lon="3.44344">
        <ele>2</ele>
        <time>2026-07-09T09:22:35.000Z</time>
      </trkpt>
      <trkpt lat="43.28894" lon="3.4434">
        <ele>2</ele>
        <time>2026-07-09T09:22:49.000Z</time>
      </trkpt>
      <trkpt lat="43.28878" lon="3.44333">
        <ele>2</ele>
        <time>2026-07-09T09:23:03.000Z</time>
      </trkpt>
      <trkpt lat="43.28875" lon="3.4431">
        <ele>1</ele>
        <time>2026-07-09T09:24:00.000Z</time>
      </trkpt>
      <trkpt lat="43.28872" lon="3.44289">
        <ele>1</ele>
        <time>2026-07-09T09:24:16.000Z</time>
      </trkpt>
      <trkpt lat="43.28856" lon="3.44284">
        <ele>1</ele>
        <time>2026-07-09T09:24:30.000Z</time>
      </trkpt>
      <trkpt lat="43.28838" lon="3.44282">
        <ele>1</ele>
        <time>2026-07-09T09:24:45.000Z</time>
      </trkpt>
      <trkpt lat="43.28819" lon="3.44279">
        <ele>1</ele>
        <time>2026-07-09T09:25:02.000Z</time>
      </trkpt>
      <trkpt lat="43.28801" lon="3.44275">
        <ele>1</ele>
        <time>2026-07-09T09:25:16.000Z</time>
      </trkpt>
      <trkpt lat="43.28782" lon="3.44273">
        <ele>1</ele>
        <time>2026-07-09T09:25:30.000Z</time>
      </trkpt>
      <trkpt lat="43.28763" lon="3.44271">
        <ele>1</ele>
        <time>2026-07-09T09:25:46.000Z</time>
      </trkpt>
      <trkpt lat="43.28744" lon="3.4427">
        <ele>1</ele>
        <time>2026-07-09T09:26:00.000Z</time>
      </trkpt>
      <trkpt lat="43.28725" lon="3.44272">
        <ele>1</ele>
        <time>2026-07-09T09:26:18.000Z</time>
      </trkpt>
      <trkpt lat="43.28706" lon="3.44267">
        <ele>1</ele>
        <time>2026-07-09T09:26:33.000Z</time>
      </trkpt>
      <trkpt lat="43.28687" lon="3.44266">
        <ele>1</ele>
        <time>2026-07-09T09:26:51.000Z</time>
      </trkpt>
      <trkpt lat="43.28668" lon="3.4426">
        <ele>1</ele>
        <time>2026-07-09T09:27:06.000Z</time>
      </trkpt>
      <trkpt lat="43.28649" lon="3.44257">
        <ele>1</ele>
        <time>2026-07-09T09:27:25.000Z</time>
      </trkpt>
      <trkpt lat="43.28631" lon="3.44263">
        <ele>1</ele>
        <time>2026-07-09T09:27:42.000Z</time>
      </trkpt>
      <trkpt lat="43.28611" lon="3.44264">
        <ele>1</ele>
        <time>2026-07-09T09:28:02.000Z</time>
      </trkpt>
      <trkpt lat="43.28593" lon="3.44264">
        <ele>1</ele>
        <time>2026-07-09T09:28:25.000Z</time>
      </trkpt>
      <trkpt lat="43.28576" lon="3.44256">
        <ele>2</ele>
        <time>2026-07-09T09:28:43.000Z</time>
      </trkpt>
      <trkpt lat="43.28563" lon="3.44238">
        <ele>1</ele>
        <time>2026-07-09T09:29:04.000Z</time>
      </trkpt>
    </trkseg>
  </trk>
</gpx>